Time;durP1;ratioP1;P1;durP2;ratioP2;P2;SDS_P1;SDS_P2;PMS_P1;PMS_P2;Temp;Humidity;BMP_temperature;BMP_pressure;BME280_temperature;BME280_humidity;BME280_pressure;Samples;Min_cycle;Max_cycle;Signal;HPM_P1;HPM_P2
2023/11/29 00:01:46;;;;;;;27.17;25.25;;;;;;;;;;4991946;28;25162;-75
2023/11/29 00:04:12;;;;;;;21.85;20.17;;;;;;;;;;4995217;28;25071;-75
2023/11/29 00:06:38;;;;;;;14.98;13.98;;;;;;;;;;4990787;28;25052;-75
2023/11/29 00:09:04;;;;;;;14.10;13.07;;;;;;;;;;4987800;28;25083;-75
2023/11/29 00:11:30;;;;;;;14.05;12.82;;;;;;;;;;4988302;28;25070;-75
2023/11/29 00:13:56;;;;;;;18.35;17.40;;;;;;;;;;4987830;28;25160;-72
2023/11/29 00:16:22;;;;;;;24.25;22.92;;;;;;;;;;4994626;28;25077;-75
2023/11/29 00:18:48;;;;;;;24.05;22.67;;;;;;;;;;4989403;28;25078;-72
2023/11/29 00:21:14;;;;;;;27.02;25.55;;;;;;;;;;4998300;28;25154;-74
2023/11/29 00:23:40;;;;;;;27.05;25.33;;;;;;;;;;4992387;28;25060;-74
2023/11/29 00:26:06;;;;;;;28.52;26.48;;;;;;;;;;4999549;28;25155;-75
2023/11/29 00:28:33;;;;;;;27.10;25.08;;;;;;;;;;4987880;28;25091;-74
2023/11/29 00:30:59;;;;;;;26.92;25.05;;;;;;;;;;4988700;28;25046;-75
2023/11/29 00:33:24;;;;;;;28.05;26.35;;;;;;;;;;4989941;28;25057;-73
2023/11/29 00:35:50;;;;;;;26.35;24.70;;;;;;;;;;4990338;28;25067;-75
2023/11/29 00:38:16;;;;;;;30.55;28.55;;;;;;;;;;4986228;28;25165;-75
2023/11/29 00:40:42;;;;;;;32.17;29.85;;;;;;;;;;4991055;28;25093;-77
2023/11/29 00:43:08;;;;;;;33.58;31.13;;;;;;;;;;4991419;28;25072;-77
2023/11/29 00:45:34;;;;;;;31.52;29.33;;;;;;;;;;4992426;28;25070;-76
2023/11/29 00:48:01;;;;;;;29.92;28.13;;;;;;;;;;4991056;28;25153;-76
2023/11/29 00:50:27;;;;;;;30.73;28.85;;;;;;;;;;4993107;28;25068;-76
2023/11/29 00:52:53;;;;;;;31.95;29.95;;;;;;;;;;4989968;28;25055;-75
2023/11/29 00:55:19;;;;;;;31.80;29.90;;;;;;;;;;4993211;28;25115;-76
2023/11/29 00:57:45;;;;;;;32.50;30.60;;;;;;;;;;4991183;28;25074;-76
2023/11/29 01:00:11;;;;;;;33.25;30.85;;;;;;;;;;4989946;28;25082;-77
2023/11/29 01:02:37;;;;;;;32.08;30.08;;;;;;;;;;4988059;28;25061;-75
2023/11/29 01:05:03;;;;;;;32.00;29.95;;;;;;;;;;4992041;28;25054;-76
2023/11/29 01:07:29;;;;;;;33.80;31.58;;;;;;;;;;4991762;28;25050;-76
2023/11/29 01:09:55;;;;;;;32.25;30.35;;;;;;;;;;4990108;28;25062;-76
2023/11/29 01:12:21;;;;;;;33.58;31.63;;;;;;;;;;4990433;28;25052;-75
2023/11/29 01:14:47;;;;;;;32.75;30.60;;;;;;;;;;4990774;28;25068;-76
2023/11/29 01:17:14;;;;;;;33.30;31.48;;;;;;;;;;4999856;28;25085;-76
2023/11/29 01:19:40;;;;;;;35.13;32.85;;;;;;;;;;4997153;28;25106;-76
2023/11/29 01:22:07;;;;;;;32.45;30.20;;;;;;;;;;4995124;28;25101;-76
2023/11/29 01:24:33;;;;;;;34.22;32.13;;;;;;;;;;4992963;28;25098;-75
2023/11/29 01:26:59;;;;;;;35.67;33.22;;;;;;;;;;4990042;28;25047;-76
2023/11/29 01:29:25;;;;;;;34.13;32.13;;;;;;;;;;4998500;28;25067;-75
2023/11/29 01:31:51;;;;;;;34.55;32.10;;;;;;;;;;4995954;28;25174;-76
2023/11/29 01:34:17;;;;;;;32.17;29.63;;;;;;;;;;4993200;28;25089;-75
2023/11/29 01:36:43;;;;;;;34.55;32.20;;;;;;;;;;5008122;28;25088;-76
2023/11/29 01:39:14;;;;;;;33.38;31.17;;;;;;;;;;5002312;28;25133;-74
2023/11/29 01:41:40;;;;;;;31.30;29.48;;;;;;;;;;4995309;28;25058;-74
2023/11/29 01:44:06;;;;;;;31.30;29.60;;;;;;;;;;4988927;28;25055;-75
2023/11/29 01:46:32;;;;;;;33.33;31.42;;;;;;;;;;4991997;28;25077;-75
2023/11/29 01:48:58;;;;;;;35.65;33.58;;;;;;;;;;4988080;28;25060;-75
2023/11/29 01:51:24;;;;;;;33.38;31.52;;;;;;;;;;4996389;28;25048;-75
2023/11/29 01:53:51;;;;;;;35.92;33.92;;;;;;;;;;4994558;28;25079;-75
2023/11/29 01:56:19;;;;;;;36.95;34.60;;;;;;;;;;4993513;28;25124;-75
2023/11/29 01:58:45;;;;;;;36.30;33.97;;;;;;;;;;4988863;28;25072;-76
2023/11/29 02:01:11;;;;;;;34.85;32.85;;;;;;;;;;5002618;28;25077;-75
2023/11/29 02:03:37;;;;;;;36.28;34.13;;;;;;;;;;4990625;28;25068;-76
2023/11/29 02:06:03;;;;;;;31.95;29.90;;;;;;;;;;4991926;28;25076;-76
2023/11/29 02:08:30;;;;;;;35.80;33.30;;;;;;;;;;4994530;28;25086;-77
2023/11/29 02:10:56;;;;;;;34.17;31.80;;;;;;;;;;4985097;28;25077;-76
2023/11/29 02:13:23;;;;;;;32.40;30.13;;;;;;;;;;4988487;28;25080;-76
2023/11/29 02:15:50;;;;;;;32.80;30.40;;;;;;;;;;4991150;28;25091;-76
2023/11/29 02:18:16;;;;;;;31.50;29.55;;;;;;;;;;4989328;28;25067;-76
2023/11/29 02:20:42;;;;;;;32.28;30.15;;;;;;;;;;4995742;28;25076;-75
2023/11/29 02:23:46;;;;;;;29.17;27.13;;;;;;;;;;4986089;28;25076;-75
2023/11/29 02:26:12;;;;;;;28.25;26.45;;;;;;;;;;4913896;29;25103;-76
2023/11/29 02:28:38;;;;;;;27.30;25.33;;;;;;;;;;4913524;29;25076;-75
2023/11/29 02:31:05;;;;;;;27.02;25.17;;;;;;;;;;4947814;28;25098;-77
2023/11/29 02:33:31;;;;;;;23.88;22.23;;;;;;;;;;5000057;28;25093;-76
2023/11/29 02:35:57;;;;;;;22.85;21.33;;;;;;;;;;4994310;28;25097;-75
2023/11/29 02:38:23;;;;;;;23.92;22.27;;;;;;;;;;5002310;28;25068;-76
2023/11/29 02:40:49;;;;;;;21.30;20.02;;;;;;;;;;4994023;28;25052;-76
2023/11/29 02:43:15;;;;;;;21.55;20.25;;;;;;;;;;4992870;28;25102;-75
2023/11/29 02:45:41;;;;;;;23.48;21.48;;;;;;;;;;4994136;28;25071;-76
2023/11/29 02:48:07;;;;;;;23.13;21.73;;;;;;;;;;4990712;28;25065;-76
2023/11/29 02:50:33;;;;;;;21.50;19.70;;;;;;;;;;4985989;28;25049;-75
2023/11/29 02:52:59;;;;;;;19.05;17.60;;;;;;;;;;4994026;28;25058;-76
2023/11/29 02:55:25;;;;;;;20.20;18.58;;;;;;;;;;4992174;28;25136;-75
2023/11/29 02:57:51;;;;;;;21.02;19.23;;;;;;;;;;4993396;28;25053;-76
2023/11/29 03:00:17;;;;;;;19.05;17.60;;;;;;;;;;5003167;28;25072;-75
2023/11/29 03:02:43;;;;;;;18.92;17.30;;;;;;;;;;5006196;28;25097;-75
2023/11/29 03:05:09;;;;;;;20.08;18.00;;;;;;;;;;5014442;28;25054;-75
2023/11/29 03:07:35;;;;;;;17.25;15.98;;;;;;;;;;5003657;28;25077;-75
2023/11/29 03:10:02;;;;;;;13.63;12.20;;;;;;;;;;4989677;28;25052;-75
2023/11/29 03:12:28;;;;;;;15.02;9.80;;;;;;;;;;4991464;28;25092;-75
2023/11/29 03:14:54;;;;;;;9.27;7.20;;;;;;;;;;4992581;28;25093;-76
2023/11/29 03:17:21;;;;;;;11.18;8.88;;;;;;;;;;4989422;28;25072;-76
2023/11/29 03:19:47;;;;;;;8.85;8.00;;;;;;;;;;4990862;28;25067;-76
2023/11/29 03:22:13;;;;;;;8.00;7.20;;;;;;;;;;4991338;28;25091;-75
2023/11/29 03:24:39;;;;;;;12.48;5.15;;;;;;;;;;4992892;28;25079;-74
2023/11/29 03:27:05;;;;;;;9.68;6.07;;;;;;;;;;4998358;28;25064;-75
2023/11/29 03:29:30;;;;;;;6.63;4.80;;;;;;;;;;5002756;28;25071;-75
2023/11/29 03:31:56;;;;;;;11.43;3.65;;;;;;;;;;4987567;28;25096;-75
2023/11/29 03:34:23;;;;;;;8.75;3.60;;;;;;;;;;4985499;28;25075;-75
2023/11/29 03:36:49;;;;;;;11.52;4.75;;;;;;;;;;4987747;28;25443;-76
2023/11/29 03:39:18;;;;;;;8.57;4.50;;;;;;;;;;4988651;28;25056;-77
2023/11/29 03:41:44;;;;;;;5.78;5.25;;;;;;;;;;4994437;28;25114;-77
2023/11/29 03:44:10;;;;;;;10.98;6.32;;;;;;;;;;4990485;28;25065;-75
2023/11/29 03:46:36;;;;;;;8.25;7.55;;;;;;;;;;4996843;28;25140;-75
2023/11/29 03:49:03;;;;;;;10.05;7.70;;;;;;;;;;4999603;28;25492;-76
2023/11/29 03:51:29;;;;;;;13.50;9.88;;;;;;;;;;5002315;28;25149;-74
2023/11/29 03:53:55;;;;;;;9.05;6.63;;;;;;;;;;4995585;28;25058;-76
2023/11/29 03:56:21;;;;;;;13.93;7.35;;;;;;;;;;4996035;28;25106;-74
2023/11/29 03:58:47;;;;;;;10.63;6.82;;;;;;;;;;4999245;28;25046;-76
2023/11/29 04:01:13;;;;;;;10.25;5.63;;;;;;;;;;4991925;28;25136;-75
2023/11/29 04:03:39;;;;;;;13.40;5.65;;;;;;;;;;4982595;28;25104;-77
2023/11/29 04:06:06;;;;;;;9.85;4.22;;;;;;;;;;4977396;28;25079;-76
2023/11/29 04:08:36;;;;;;;11.57;5.25;;;;;;;;;;4992826;28;25058;-75
2023/11/29 04:11:02;;;;;;;13.52;6.00;;;;;;;;;;4994187;28;25138;-76
2023/11/29 04:13:28;;;;;;;8.98;5.68;;;;;;;;;;4990092;28;25138;-76
2023/11/29 04:15:55;;;;;;;9.07;5.38;;;;;;;;;;4991869;28;25056;-76
2023/11/29 04:18:22;;;;;;;13.10;5.13;;;;;;;;;;4987027;28;25054;-77
2023/11/29 04:20:48;;;;;;;12.63;4.10;;;;;;;;;;4999459;28;25080;-78
2023/11/29 04:23:14;;;;;;;7.47;5.10;;;;;;;;;;4991443;28;25059;-75
2023/11/29 04:25:40;;;;;;;12.13;10.85;;;;;;;;;;4985695;28;25052;-75
2023/11/29 04:28:06;;;;;;;18.27;16.90;;;;;;;;;;4997389;28;25110;-75
2023/11/29 04:30:32;;;;;;;20.65;18.77;;;;;;;;;;4993724;28;25142;-74
2023/11/29 04:32:57;;;;;;;20.88;19.45;;;;;;;;;;4987015;28;25059;-73
2023/11/29 04:35:23;;;;;;;22.08;20.65;;;;;;;;;;4993724;28;25088;-75
2023/11/29 04:37:49;;;;;;;31.63;24.50;;;;;;;;;;4996185;28;25054;-74
2023/11/29 04:40:15;;;;;;;25.65;24.13;;;;;;;;;;5003661;28;25149;-74
2023/11/29 04:42:41;;;;;;;27.10;25.20;;;;;;;;;;4997839;28;25067;-74
2023/11/29 04:45:08;;;;;;;26.67;25.10;;;;;;;;;;4998540;28;25071;-73
2023/11/29 04:47:33;;;;;;;25.48;24.10;;;;;;;;;;4997998;28;25091;-73
2023/11/29 04:49:59;;;;;;;23.55;22.40;;;;;;;;;;4999604;28;25089;-75
2023/11/29 04:52:28;;;;;;;21.45;19.98;;;;;;;;;;4996094;28;25073;-76
2023/11/29 04:54:54;;;;;;;18.60;17.58;;;;;;;;;;4992839;28;25083;-74
2023/11/29 04:57:20;;;;;;;18.20;17.15;;;;;;;;;;4999615;28;25129;-75
2023/11/29 04:59:46;;;;;;;18.00;17.00;;;;;;;;;;4999932;28;25136;-72
2023/11/29 05:02:12;;;;;;;15.90;14.80;;;;;;;;;;5000251;28;25106;-76
2023/11/29 05:04:37;;;;;;;18.42;17.52;;;;;;;;;;5003411;28;25075;-73
2023/11/29 05:07:04;;;;;;;15.10;14.20;;;;;;;;;;4993223;28;25139;-76
2023/11/29 05:09:30;;;;;;;16.05;14.95;;;;;;;;;;4988123;28;25067;-75
2023/11/29 05:11:56;;;;;;;16.75;15.85;;;;;;;;;;4993877;28;25083;-77
2023/11/29 05:14:22;;;;;;;16.52;15.60;;;;;;;;;;4992348;28;25060;-76
2023/11/29 05:16:48;;;;;;;19.25;17.70;;;;;;;;;;4996919;28;25064;-74
2023/11/29 05:19:13;;;;;;;21.60;19.58;;;;;;;;;;5000139;28;25057;-74
2023/11/29 05:21:39;;;;;;;20.70;19.50;;;;;;;;;;4990081;28;25076;-74
2023/11/29 05:24:06;;;;;;;23.55;22.20;;;;;;;;;;4990321;28;25070;-75
2023/11/29 05:26:32;;;;;;;20.63;19.02;;;;;;;;;;4990437;28;25141;-76
2023/11/29 05:29:00;;;;;;;23.30;22.05;;;;;;;;;;4992126;28;25103;-77
2023/11/29 05:31:26;;;;;;;21.33;20.15;;;;;;;;;;4990443;28;25084;-76
2023/11/29 05:33:52;;;;;;;18.45;17.13;;;;;;;;;;4988992;28;25076;-74
2023/11/29 05:36:19;;;;;;;25.27;22.95;;;;;;;;;;4989499;28;25071;-75
2023/11/29 05:38:45;;;;;;;19.35;17.95;;;;;;;;;;4991487;28;25064;-75
2023/11/29 05:41:13;;;;;;;21.48;19.95;;;;;;;;;;4991195;28;25133;-74
2023/11/29 05:43:40;;;;;;;22.08;20.23;;;;;;;;;;4992003;28;25161;-76
2023/11/29 05:46:06;;;;;;;21.60;20.15;;;;;;;;;;4987456;28;25072;-74
2023/11/29 05:48:32;;;;;;;20.05;18.48;;;;;;;;;;4992561;28;25085;-74
2023/11/29 05:50:58;;;;;;;19.77;18.17;;;;;;;;;;4992782;28;25084;-76
2023/11/29 05:53:24;;;;;;;22.35;20.77;;;;;;;;;;4991918;28;25055;-75
2023/11/29 05:55:50;;;;;;;23.48;21.83;;;;;;;;;;4988824;28;25098;-72
2023/11/29 05:58:16;;;;;;;23.73;21.70;;;;;;;;;;4993922;28;25066;-77
2023/11/29 06:00:42;;;;;;;24.17;22.58;;;;;;;;;;4992327;28;25107;-75
2023/11/29 06:03:08;;;;;;;18.52;17.23;;;;;;;;;;4992713;28;25068;-77
2023/11/29 06:05:34;;;;;;;16.40;15.18;;;;;;;;;;4997511;28;25138;-75
2023/11/29 06:08:01;;;;;;;12.30;11.35;;;;;;;;;;5004498;28;25064;-75
2023/11/29 06:10:27;;;;;;;15.50;13.68;;;;;;;;;;4998952;28;25072;-74
2023/11/29 06:12:53;;;;;;;16.10;14.45;;;;;;;;;;4992517;28;25179;-75
2023/11/29 06:15:19;;;;;;;19.08;17.52;;;;;;;;;;4987837;28;25090;-73
2023/11/29 06:17:45;;;;;;;19.95;18.42;;;;;;;;;;4988584;28;25115;-74
2023/11/29 06:20:11;;;;;;;18.38;17.33;;;;;;;;;;4988908;28;25055;-75
2023/11/29 06:22:38;;;;;;;25.25;23.75;;;;;;;;;;4984024;28;25052;-75
2023/11/29 06:25:04;;;;;;;23.77;22.42;;;;;;;;;;4980983;28;25052;-73
2023/11/29 06:27:30;;;;;;;25.80;24.13;;;;;;;;;;4978802;28;25138;-75
2023/11/29 06:29:57;;;;;;;26.73;24.85;;;;;;;;;;4982371;28;25084;-75
2023/11/29 06:32:23;;;;;;;26.35;24.27;;;;;;;;;;4986535;28;25071;-75
2023/11/29 06:34:51;;;;;;;25.67;23.95;;;;;;;;;;4991449;28;25123;-73
2023/11/29 06:37:17;;;;;;;22.33;20.88;;;;;;;;;;4990785;28;25078;-73
2023/11/29 06:39:46;;;;;;;24.88;22.92;;;;;;;;;;4984005;28;25126;-75
2023/11/29 06:42:13;;;;;;;24.88;23.00;;;;;;;;;;4987141;28;25088;-75
2023/11/29 06:44:39;;;;;;;26.65;24.23;;;;;;;;;;4984144;28;25076;-74
2023/11/29 06:47:05;;;;;;;25.10;23.60;;;;;;;;;;4987766;28;25051;-74
2023/11/29 06:49:31;;;;;;;29.35;27.08;;;;;;;;;;4967413;28;25080;-75
2023/11/29 06:51:57;;;;;;;27.55;25.58;;;;;;;;;;4984354;28;25059;-74
2023/11/29 06:54:23;;;;;;;29.00;27.08;;;;;;;;;;4981603;28;25073;-74
2023/11/29 06:56:49;;;;;;;30.33;27.35;;;;;;;;;;4979126;28;25055;-74
2023/11/29 06:59:15;;;;;;;27.27;25.17;;;;;;;;;;4985002;28;25115;-74
2023/11/29 07:01:42;;;;;;;29.35;27.15;;;;;;;;;;4988684;28;25075;-76
2023/11/29 07:04:08;;;;;;;25.58;24.02;;;;;;;;;;4980425;28;25058;-74
2023/11/29 07:06:34;;;;;;;26.00;23.77;;;;;;;;;;4986063;28;25056;-74
2023/11/29 07:09:00;;;;;;;28.52;26.23;;;;;;;;;;4987049;28;25074;-75
2023/11/29 07:11:26;;;;;;;27.90;25.90;;;;;;;;;;4986573;28;25071;-74
2023/11/29 07:13:52;;;;;;;32.42;30.27;;;;;;;;;;4979714;28;25061;-73
2023/11/29 07:16:18;;;;;;;32.15;29.77;;;;;;;;;;4986236;28;25101;-75
2023/11/29 07:18:44;;;;;;;35.40;32.95;;;;;;;;;;4987046;28;25070;-73
2023/11/29 07:21:10;;;;;;;32.58;29.92;;;;;;;;;;4984845;28;25058;-75
2023/11/29 07:23:36;;;;;;;33.45;31.00;;;;;;;;;;4979016;28;25078;-72
2023/11/29 07:26:02;;;;;;;33.65;31.40;;;;;;;;;;4985971;28;25071;-73
2023/11/29 07:28:28;;;;;;;39.10;36.10;;;;;;;;;;4983106;28;25093;-75
2023/11/29 07:30:54;;;;;;;40.30;37.63;;;;;;;;;;4981919;28;25053;-73
2023/11/29 07:33:20;;;;;;;38.13;35.50;;;;;;;;;;4985940;28;25079;-73
2023/11/29 07:35:46;;;;;;;36.70;33.65;;;;;;;;;;4984992;28;25080;-74
2023/11/29 07:38:12;;;;;;;36.38;33.78;;;;;;;;;;4980342;28;25101;-74
2023/11/29 07:40:38;;;;;;;35.05;32.55;;;;;;;;;;4985028;28;25111;-73
2023/11/29 07:43:04;;;;;;;37.08;34.58;;;;;;;;;;4984496;28;25078;-73
2023/11/29 07:45:30;;;;;;;40.00;36.88;;;;;;;;;;4985161;28;25098;-72
2023/11/29 07:47:56;;;;;;;37.80;34.38;;;;;;;;;;4984252;28;25068;-73
2023/11/29 07:50:22;;;;;;;36.42;33.78;;;;;;;;;;4984873;28;25109;-73
2023/11/29 07:52:48;;;;;;;35.13;32.38;;;;;;;;;;4980708;28;25070;-72
2023/11/29 07:55:13;;;;;;;36.95;34.22;;;;;;;;;;4979705;28;25100;-72
2023/11/29 07:57:40;;;;;;;35.00;32.55;;;;;;;;;;4981592;28;25161;-73
2023/11/29 08:00:06;;;;;;;36.28;33.42;;;;;;;;;;4986195;28;25058;-73
2023/11/29 08:02:32;;;;;;;36.88;33.90;;;;;;;;;;4989085;28;25097;-73
2023/11/29 08:04:59;;;;;;;34.08;31.08;;;;;;;;;;4986285;28;25064;-73
2023/11/29 08:07:25;;;;;;;32.63;29.90;;;;;;;;;;4984243;28;25082;-73
2023/11/29 08:09:51;;;;;;;33.95;31.17;;;;;;;;;;4984569;28;25084;-73
2023/11/29 08:12:17;;;;;;;34.28;31.15;;;;;;;;;;4984559;28;25055;-72
2023/11/29 08:14:43;;;;;;;34.10;31.00;;;;;;;;;;4979660;28;25152;-72
2023/11/29 08:17:09;;;;;;;31.45;29.13;;;;;;;;;;4977976;28;25061;-73
2023/11/29 08:19:35;;;;;;;32.17;29.58;;;;;;;;;;4984740;28;25084;-74
2023/11/29 08:22:03;;;;;;;30.35;27.88;;;;;;;;;;4983604;28;25052;-73
2023/11/29 08:24:29;;;;;;;29.23;26.60;;;;;;;;;;4983775;28;25116;-72
2023/11/29 08:26:55;;;;;;;27.02;24.90;;;;;;;;;;4985303;28;25134;-72
2023/11/29 08:29:21;;;;;;;29.58;27.23;;;;;;;;;;4996934;28;25073;-74
2023/11/29 08:31:49;;;;;;;25.02;23.52;;;;;;;;;;5000792;28;25068;-73
2023/11/29 08:34:15;;;;;;;24.48;22.38;;;;;;;;;;4991946;28;25188;-72
2023/11/29 08:36:41;;;;;;;15.88;14.73;;;;;;;;;;4987946;28;25097;-73
2023/11/29 08:39:07;;;;;;;19.25;17.38;;;;;;;;;;4985887;28;25144;-72
2023/11/29 08:41:33;;;;;;;15.60;14.10;;;;;;;;;;4983650;28;25148;-73
2023/11/29 08:43:59;;;;;;;16.45;14.82;;;;;;;;;;4982237;28;25064;-75
2023/11/29 08:46:25;;;;;;;16.73;15.35;;;;;;;;;;4985324;28;25140;-75
2023/11/29 08:48:51;;;;;;;18.77;17.23;;;;;;;;;;4985851;28;25136;-72
2023/11/29 08:51:17;;;;;;;19.08;17.80;;;;;;;;;;4988332;28;25091;-72
2023/11/29 08:53:43;;;;;;;19.05;17.45;;;;;;;;;;4983482;28;25069;-72
2023/11/29 08:56:16;;;;;;;20.00;18.40;;;;;;;;;;4986060;28;25061;-73
2023/11/29 08:58:44;;;;;;;21.05;19.65;;;;;;;;;;4986157;28;25048;-72
2023/11/29 09:01:11;;;;;;;21.83;20.15;;;;;;;;;;4988367;28;25051;-71
2023/11/29 09:03:37;;;;;;;16.38;15.18;;;;;;;;;;4988312;28;25148;-74
2023/11/29 09:06:03;;;;;;;17.10;15.90;;;;;;;;;;4989005;28;25118;-72
2023/11/29 09:08:30;;;;;;;19.20;17.42;;;;;;;;;;4988370;28;25054;-74
2023/11/29 09:10:57;;;;;;;16.52;15.20;;;;;;;;;;4986492;28;25075;-73
2023/11/29 09:13:23;;;;;;;20.25;18.75;;;;;;;;;;4987535;28;25065;-73
2023/11/29 09:15:49;;;;;;;18.92;17.42;;;;;;;;;;5002076;28;25086;-73
2023/11/29 09:18:15;;;;;;;19.77;18.02;;;;;;;;;;4996362;28;25076;-73
2023/11/29 09:20:43;;;;;;;21.75;19.85;;;;;;;;;;4995876;28;25104;-73
2023/11/29 09:23:09;;;;;;;20.00;18.33;;;;;;;;;;4987952;28;25082;-74
2023/11/29 09:25:36;;;;;;;22.48;18.40;;;;;;;;;;4989091;28;25075;-75
2023/11/29 09:28:06;;;;;;;19.05;17.58;;;;;;;;;;4989504;28;25156;-73
2023/11/29 09:30:32;;;;;;;19.90;18.25;;;;;;;;;;4990474;28;25074;-75
2023/11/29 09:32:58;;;;;;;20.08;18.23;;;;;;;;;;4991803;28;25093;-72
2023/11/29 09:35:24;;;;;;;18.85;16.80;;;;;;;;;;4997946;28;25095;-74
2023/11/29 09:37:50;;;;;;;20.50;18.88;;;;;;;;;;4987249;28;25091;-72
2023/11/29 09:40:16;;;;;;;20.58;18.77;;;;;;;;;;4988237;28;25072;-74
2023/11/29 09:42:43;;;;;;;20.30;17.55;;;;;;;;;;4987926;28;25073;-74
2023/11/29 09:45:20;;;;;;;17.55;16.05;;;;;;;;;;4988065;28;25068;-74
2023/11/29 09:47:46;;;;;;;18.95;17.35;;;;;;;;;;4987502;28;25065;-75
2023/11/29 09:50:12;;;;;;;18.60;16.90;;;;;;;;;;4998660;28;25103;-76
2023/11/29 09:52:38;;;;;;;14.43;12.55;;;;;;;;;;4997826;28;25059;-74
2023/11/29 09:55:05;;;;;;;12.40;11.45;;;;;;;;;;4995562;28;25082;-73
2023/11/29 09:57:31;;;;;;;12.95;11.75;;;;;;;;;;4998745;28;25069;-74
2023/11/29 09:59:57;;;;;;;8.45;7.70;;;;;;;;;;4999878;28;25142;-75
2023/11/29 10:02:23;;;;;;;6.10;5.50;;;;;;;;;;5001727;28;25071;-73
2023/11/29 10:04:49;;;;;;;17.25;7.32;;;;;;;;;;4999810;28;25113;-74
2023/11/29 10:07:15;;;;;;;7.10;6.47;;;;;;;;;;4991260;28;25074;-74
2023/11/29 10:09:41;;;;;;;9.07;5.75;;;;;;;;;;4990903;28;25071;-73
2023/11/29 10:12:10;;;;;;;7.38;5.00;;;;;;;;;;4985919;28;25142;-74
2023/11/29 10:14:40;;;;;;;5.07;4.18;;;;;;;;;;4994594;28;25072;-74
2023/11/29 10:17:08;;;;;;;5.35;3.97;;;;;;;;;;4985678;28;25054;-74
2023/11/29 10:19:34;;;;;;;7.32;3.13;;;;;;;;;;4984294;28;25173;-74
2023/11/29 10:22:01;;;;;;;16.50;4.32;;;;;;;;;;4983115;28;25090;-74
2023/11/29 10:24:27;;;;;;;5.32;4.00;;;;;;;;;;4982014;28;25078;-75
2023/11/29 10:26:54;;;;;;;13.23;4.80;;;;;;;;;;4985118;28;25148;-75
2023/11/29 10:29:20;;;;;;;14.20;5.38;;;;;;;;;;4988360;28;25055;-75
2023/11/29 10:31:47;;;;;;;13.85;5.10;;;;;;;;;;4985757;28;25157;-75
2023/11/29 10:34:14;;;;;;;9.00;3.80;;;;;;;;;;4984702;28;25071;-74
2023/11/29 10:36:41;;;;;;;5.43;3.20;;;;;;;;;;4987292;28;25062;-74
2023/11/29 10:39:14;;;;;;;9.25;4.15;;;;;;;;;;4988052;28;25066;-75
2023/11/29 10:41:52;;;;;;;7.50;3.08;;;;;;;;;;4984486;28;25075;-75
2023/11/29 10:44:22;;;;;;;5.70;3.70;;;;;;;;;;4987706;28;25060;-72
2023/11/29 10:46:48;;;;;;;6.20;3.80;;;;;;;;;;4986696;28;25069;-75
2023/11/29 10:49:24;;;;;;;5.65;2.83;;;;;;;;;;4986819;28;25128;-74
2023/11/29 10:51:51;;;;;;;6.07;2.70;;;;;;;;;;4986568;28;25078;-74
2023/11/29 10:54:18;;;;;;;5.65;3.38;;;;;;;;;;4984652;28;25055;-74
2023/11/29 10:56:44;;;;;;;3.38;2.65;;;;;;;;;;4986566;28;25058;-74
2023/11/29 10:59:23;;;;;;;10.32;3.40;;;;;;;;;;4989693;28;25072;-74
2023/11/29 11:01:49;;;;;;;6.40;3.55;;;;;;;;;;4985881;28;25152;-74
2023/11/29 11:04:15;;;;;;;9.60;3.47;;;;;;;;;;4982723;28;25075;-74
2023/11/29 11:06:41;;;;;;;9.23;3.30;;;;;;;;;;4985431;28;25049;-74
2023/11/29 11:09:26;;;;;;;7.95;2.90;;;;;;;;;;4985428;28;25051;-73
2023/11/29 11:11:52;;;;;;;9.18;4.10;;;;;;;;;;4989867;28;25072;-74
2023/11/29 11:14:19;;;;;;;4.03;3.25;;;;;;;;;;4986906;28;25054;-73
2023/11/29 11:16:56;;;;;;;5.55;3.50;;;;;;;;;;4982288;28;25058;-73
2023/11/29 11:19:29;;;;;;;5.63;3.50;;;;;;;;;;4991488;28;25129;-73
2023/11/29 11:21:55;;;;;;;6.03;3.05;;;;;;;;;;4991218;28;25083;-75
2023/11/29 11:24:41;;;;;;;7.47;2.80;;;;;;;;;;4989935;28;25085;-75
2023/11/29 11:27:08;;;;;;;2.42;1.70;;;;;;;;;;4986832;28;25090;-74
2023/11/29 11:29:34;;;;;;;2.67;1.33;;;;;;;;;;4991468;28;25053;-73
2023/11/29 11:32:00;;;;;;;2.97;1.20;;;;;;;;;;4991104;28;25085;-71
2023/11/29 11:34:27;;;;;;;1.83;1.00;;;;;;;;;;5005743;28;25069;-73
2023/11/29 11:36:54;;;;;;;4.75;1.85;;;;;;;;;;4989765;28;25058;-73
2023/11/29 11:39:20;;;;;;;6.72;1.48;;;;;;;;;;4993421;28;25164;-73
2023/11/29 11:41:46;;;;;;;5.70;1.40;;;;;;;;;;4987160;28;25078;-74
2023/11/29 11:44:12;;;;;;;5.82;1.20;;;;;;;;;;4986556;28;25056;-73
2023/11/29 11:46:38;;;;;;;4.65;1.38;;;;;;;;;;4982811;28;25088;-74
2023/11/29 11:49:07;;;;;;;3.78;1.40;;;;;;;;;;4985919;28;25180;-73
2023/11/29 11:51:33;;;;;;;5.15;1.25;;;;;;;;;;4987158;28;25069;-72
2023/11/29 11:53:59;;;;;;;11.73;2.70;;;;;;;;;;5001230;28;25064;-72
2023/11/29 11:56:25;;;;;;;8.77;1.80;;;;;;;;;;5005825;28;25091;-73
2023/11/29 11:58:51;;;;;;;3.42;1.38;;;;;;;;;;5002451;28;25075;-73
2023/11/29 12:01:17;;;;;;;2.92;1.10;;;;;;;;;;4996120;28;25049;-73
2023/11/29 12:03:43;;;;;;;5.53;1.83;;;;;;;;;;4996510;28;25061;-74
2023/11/29 12:06:09;;;;;;;10.10;1.90;;;;;;;;;;4998637;28;25054;-73
2023/11/29 12:08:37;;;;;;;5.65;1.20;;;;;;;;;;4996432;28;25060;-73
2023/11/29 12:11:03;;;;;;;5.90;1.40;;;;;;;;;;4995895;28;25057;-74
2023/11/29 12:13:29;;;;;;;3.50;1.00;;;;;;;;;;4991198;28;25053;-75
2023/11/29 12:15:55;;;;;;;3.72;1.10;;;;;;;;;;4988929;28;25075;-73
2023/11/29 12:18:24;;;;;;;3.63;2.25;;;;;;;;;;4986296;28;25060;-73
2023/11/29 12:20:50;;;;;;;8.57;2.65;;;;;;;;;;4986202;28;25083;-74
2023/11/29 12:23:16;;;;;;;2.55;1.45;;;;;;;;;;4986874;28;25087;-73
2023/11/29 12:25:43;;;;;;;6.03;1.50;;;;;;;;;;4986312;28;25075;-73
2023/11/29 12:28:09;;;;;;;3.13;1.38;;;;;;;;;;4988448;28;25067;-72
2023/11/29 12:30:38;;;;;;;5.93;1.50;;;;;;;;;;4987809;28;25066;-72
2023/11/29 12:33:05;;;;;;;4.78;1.35;;;;;;;;;;4988170;28;25071;-73
2023/11/29 12:35:31;;;;;;;3.30;1.30;;;;;;;;;;4992648;28;25085;-73
2023/11/29 12:37:57;;;;;;;5.30;1.50;;;;;;;;;;4992075;28;25076;-73
2023/11/29 12:40:25;;;;;;;4.80;1.60;;;;;;;;;;4991243;28;25139;-72
2023/11/29 12:42:51;;;;;;;4.93;2.45;;;;;;;;;;4988461;28;25069;-72
2023/11/29 12:45:18;;;;;;;5.43;1.35;;;;;;;;;;4989038;28;25057;-71
2023/11/29 12:47:44;;;;;;;7.15;1.70;;;;;;;;;;4990570;28;25078;-72
2023/11/29 12:50:11;;;;;;;6.47;1.67;;;;;;;;;;4990721;28;25065;-73
2023/11/29 12:52:37;;;;;;;5.72;1.45;;;;;;;;;;4991370;28;25072;-72
2023/11/29 12:55:03;;;;;;;6.20;1.55;;;;;;;;;;4989651;28;25102;-72
2023/11/29 12:57:29;;;;;;;5.63;1.33;;;;;;;;;;4989024;28;25127;-73
2023/11/29 12:59:57;;;;;;;11.52;1.50;;;;;;;;;;4990131;28;25062;-73
2023/11/29 13:02:22;;;;;;;6.10;1.50;;;;;;;;;;4991047;28;25070;-73
2023/11/29 13:04:48;;;;;;;4.88;1.40;;;;;;;;;;4989264;28;25076;-73
2023/11/29 13:07:15;;;;;;;2.45;1.23;;;;;;;;;;4987414;28;25115;-73
2023/11/29 13:09:41;;;;;;;6.65;1.85;;;;;;;;;;4990700;28;25084;-72
2023/11/29 13:12:07;;;;;;;8.25;2.55;;;;;;;;;;4987663;28;25159;-73
2023/11/29 13:14:41;;;;;;;5.68;2.78;;;;;;;;;;4989744;28;25064;-74
2023/11/29 13:17:07;;;;;;;5.90;2.58;;;;;;;;;;4988809;28;25072;-73
2023/11/29 13:19:33;;;;;;;4.88;3.10;;;;;;;;;;4989422;28;25127;-74
2023/11/29 13:21:59;;;;;;;4.68;2.85;;;;;;;;;;4986724;28;25107;-73
2023/11/29 13:24:25;;;;;;;3.80;3.08;;;;;;;;;;4995932;28;25147;-74
2023/11/29 13:26:51;;;;;;;4.95;2.70;;;;;;;;;;4988419;28;25076;-74
2023/11/29 13:29:17;;;;;;;2.70;1.85;;;;;;;;;;4988252;28;25103;-73
2023/11/29 13:31:43;;;;;;;4.03;2.22;;;;;;;;;;4988667;28;25046;-74
2023/11/29 13:34:09;;;;;;;1.75;1.50;;;;;;;;;;4988353;28;25041;-74
2023/11/29 13:36:35;;;;;;;2.72;1.40;;;;;;;;;;4989565;28;25071;-73
2023/11/29 13:39:04;;;;;;;1.58;1.27;;;;;;;;;;4989054;28;25065;-73
2023/11/29 13:41:30;;;;;;;2.08;1.55;;;;;;;;;;4985569;28;25054;-76
2023/11/29 13:43:56;;;;;;;3.25;1.50;;;;;;;;;;4987372;28;25055;-74
2023/11/29 13:46:22;;;;;;;3.25;1.60;;;;;;;;;;4987357;28;25047;-74
2023/11/29 13:48:48;;;;;;;1.80;1.33;;;;;;;;;;4988600;28;25150;-73
2023/11/29 13:51:14;;;;;;;1.85;1.45;;;;;;;;;;4987222;28;25049;-75
2023/11/29 13:53:40;;;;;;;4.20;1.80;;;;;;;;;;4987440;28;25064;-74
2023/11/29 13:56:06;;;;;;;3.75;1.90;;;;;;;;;;4987125;28;25092;-74
2023/11/29 13:58:32;;;;;;;3.50;1.90;;;;;;;;;;4986848;28;25047;-74
2023/11/29 14:00:58;;;;;;;2.40;2.20;;;;;;;;;;4989982;28;26181;-74
2023/11/29 14:03:24;;;;;;;2.95;2.45;;;;;;;;;;5001964;28;25090;-73
2023/11/29 14:05:50;;;;;;;4.43;3.28;;;;;;;;;;4987085;28;25078;-73
2023/11/29 14:08:16;;;;;;;3.05;2.40;;;;;;;;;;4985577;28;25111;-74
2023/11/29 14:10:42;;;;;;;5.43;3.13;;;;;;;;;;4986899;28;25067;-73
2023/11/29 14:13:08;;;;;;;4.68;2.65;;;;;;;;;;4986576;28;25147;-73
2023/11/29 14:15:34;;;;;;;8.55;2.72;;;;;;;;;;4986615;28;25055;-73
2023/11/29 14:18:00;;;;;;;2.97;2.65;;;;;;;;;;4987854;28;25063;-73
2023/11/29 14:20:25;;;;;;;5.00;2.28;;;;;;;;;;4986950;28;25103;-74
2023/11/29 14:22:52;;;;;;;4.10;1.95;;;;;;;;;;4987540;28;25074;-73